Time;durP1;ratioP1;P1;durP2;ratioP2;P2;SDS_P1;SDS_P2;PMS_P1;PMS_P2;Temp;Humidity;BMP_temperature;BMP_pressure;BME280_temperature;BME280_humidity;BME280_pressure;Samples;Min_cycle;Max_cycle;Signal;HPM_P1;HPM_P2
2022/08/30 00:02:27;;;;;;;4.80;2.97;;;16.00;99.90;;;;;;5100847;27;38723;-57
2022/08/30 00:04:55;;;;;;;4.50;2.53;;;16.00;99.90;;;;;;5101687;27;36097;-57
2022/08/30 00:07:24;;;;;;;6.22;2.83;;;15.90;99.90;;;;;;5101721;27;36409;-57
2022/08/30 00:09:51;;;;;;;4.45;2.72;;;15.90;99.90;;;;;;5101587;27;38124;-58
2022/08/30 00:12:19;;;;;;;5.43;2.25;;;15.90;99.90;;;;;;5101895;27;38450;-57
2022/08/30 00:14:47;;;;;;;5.38;2.55;;;15.90;99.90;;;;;;5102070;27;38541;-57
2022/08/30 00:17:14;;;;;;;4.93;2.40;;;15.90;99.90;;;;;;5100013;27;36656;-57
2022/08/30 00:19:43;;;;;;;5.50;2.10;;;15.90;99.90;;;;;;5099638;27;37802;-57
2022/08/30 00:22:11;;;;;;;3.72;2.10;;;15.80;99.90;;;;;;5100436;27;37810;-57
2022/08/30 00:24:38;;;;;;;3.15;1.65;;;15.80;99.90;;;;;;5099780;27;37859;-57
2022/08/30 00:27:05;;;;;;;2.72;1.40;;;15.70;99.90;;;;;;5102710;27;35240;-58
2022/08/30 00:29:33;;;;;;;3.55;1.88;;;15.70;99.90;;;;;;5101534;27;38580;-57
2022/08/30 00:32:01;;;;;;;3.13;1.90;;;15.70;99.90;;;;;;5101342;27;36519;-58
2022/08/30 00:34:28;;;;;;;3.03;1.80;;;15.70;99.90;;;;;;5101896;27;37995;-57
2022/08/30 00:36:58;;;;;;;2.95;1.75;;;15.60;99.90;;;;;;5100329;27;36696;-57
2022/08/30 00:39:25;;;;;;;3.25;1.80;;;15.60;99.90;;;;;;5097890;27;37751;-57
2022/08/30 00:41:52;;;;;;;3.47;1.77;;;15.50;99.90;;;;;;5102071;27;38942;-57
2022/08/30 00:44:20;;;;;;;5.25;2.15;;;15.40;99.90;;;;;;5103339;27;37233;-57
2022/08/30 00:46:47;;;;;;;3.38;1.92;;;15.40;99.90;;;;;;5102598;27;36160;-57
2022/08/30 00:49:14;;;;;;;3.13;1.50;;;15.40;99.90;;;;;;5102518;27;37536;-58
2022/08/30 00:51:42;;;;;;;1.52;1.00;;;15.40;99.90;;;;;;5101986;27;38329;-57
2022/08/30 00:54:11;;;;;;;1.85;1.27;;;15.40;99.90;;;;;;5102865;27;36068;-57
2022/08/30 00:56:40;;;;;;;4.07;1.90;;;15.50;99.90;;;;;;5104270;27;20190;-57
2022/08/30 00:59:08;;;;;;;3.38;1.73;;;15.40;99.90;;;;;;5103211;27;36519;-57
2022/08/30 01:01:36;;;;;;;0.55;0.50;;;15.40;99.90;;;;;;5103283;27;36642;-57
2022/08/30 01:04:05;;;;;;;1.80;0.65;;;15.40;99.90;;;;;;5102010;27;37871;-56
2022/08/30 01:06:32;;;;;;;1.40;0.85;;;15.40;99.90;;;;;;5101159;27;38070;-57
2022/08/30 01:09:01;;;;;;;1.48;0.30;;;15.40;99.90;;;;;;5101600;27;37976;-57
2022/08/30 01:11:32;;;;;;;0.40;0.30;;;15.40;99.90;;;;;;5102950;27;39027;-57
2022/08/30 01:14:01;;;;;;;0.60;0.20;;;15.30;99.90;;;;;;5102065;27;37572;-57
2022/08/30 01:16:30;;;;;;;0.30;0.30;;;15.40;99.90;;;;;;5101005;27;37890;-57
2022/08/30 01:18:59;;;;;;;2.75;0.70;;;15.30;99.90;;;;;;5103470;27;39122;-57
2022/08/30 01:21:34;;;;;;;0.93;0.60;;;15.30;99.90;;;;;;5102471;27;36758;-56
2022/08/30 01:24:04;;;;;;;2.92;1.40;;;15.30;99.90;;;;;;5102137;27;38129;-57
2022/08/30 01:26:34;;;;;;;3.22;1.38;;;15.40;99.90;;;;;;5103060;27;37441;-57
2022/08/30 01:29:06;;;;;;;2.42;1.40;;;15.40;99.90;;;;;;5102136;27;37415;-57
2022/08/30 01:31:35;;;;;;;3.10;1.52;;;15.50;99.90;;;;;;5102419;27;37876;-57
2022/08/30 01:34:04;;;;;;;2.67;1.20;;;15.50;99.90;;;;;;5102767;27;37226;-57
2022/08/30 01:36:31;;;;;;;1.67;1.08;;;15.40;99.90;;;;;;5101221;27;36333;-57
2022/08/30 01:38:59;;;;;;;2.85;1.40;;;15.40;99.90;;;;;;5100767;27;38667;-57
2022/08/30 01:41:31;;;;;;;2.63;1.48;;;15.40;99.90;;;;;;5102126;27;38101;-57
2022/08/30 01:44:00;;;;;;;3.25;1.30;;;15.40;99.90;;;;;;5102843;27;36147;-57
2022/08/30 01:46:34;;;;;;;2.05;1.05;;;15.40;99.90;;;;;;5101909;27;36523;-57
2022/08/30 01:49:03;;;;;;;2.28;1.30;;;15.40;99.90;;;;;;5102218;27;39150;-57
2022/08/30 01:51:31;;;;;;;2.60;1.17;;;15.40;99.90;;;;;;5102023;27;37669;-56
2022/08/30 01:53:58;;;;;;;4.55;1.35;;;15.40;99.90;;;;;;5102293;27;36429;-57
2022/08/30 01:56:28;;;;;;;2.60;1.38;;;15.40;99.90;;;;;;5102503;27;37020;-57
2022/08/30 01:58:58;;;;;;;2.00;1.10;;;15.40;99.90;;;;;;5101435;27;37505;-56
2022/08/30 02:01:27;;;;;;;1.95;1.20;;;15.50;99.90;;;;;;5101730;27;37622;-56
2022/08/30 02:03:56;;;;;;;3.38;1.55;;;15.50;99.90;;;;;;5102938;27;36197;-57
2022/08/30 02:06:24;;;;;;;2.30;1.20;;;15.50;99.90;;;;;;5101874;27;37124;-57
2022/08/30 02:08:52;;;;;;;2.90;1.45;;;15.50;99.90;;;;;;5101887;27;40182;-57
2022/08/30 02:11:19;;;;;;;3.75;1.70;;;15.50;99.90;;;;;;5100746;27;39423;-57
2022/08/30 02:13:48;;;;;;;2.72;1.15;;;15.50;99.90;;;;;;5102742;27;37722;-57
2022/08/30 02:16:18;;;;;;;2.50;1.40;;;15.50;99.90;;;;;;5101389;27;37024;-56
2022/08/30 02:18:45;;;;;;;4.15;1.50;;;15.40;99.90;;;;;;5102143;27;37708;-57
2022/08/30 02:21:13;;;;;;;4.57;1.63;;;15.40;99.90;;;;;;5105123;27;37794;-57
2022/08/30 02:23:41;;;;;;;2.75;1.40;;;15.40;99.90;;;;;;5105637;27;37874;-57
2022/08/30 02:26:09;;;;;;;3.92;1.83;;;15.40;99.90;;;;;;5105994;27;36641;-57
2022/08/30 02:28:37;;;;;;;4.20;2.00;;;15.40;99.90;;;;;;5107304;27;36294;-56
2022/08/30 02:31:06;;;;;;;3.13;1.80;;;15.40;99.90;;;;;;5104465;27;37639;-57
2022/08/30 02:33:33;;;;;;;3.38;1.65;;;15.40;99.90;;;;;;5106707;27;38633;-56
2022/08/30 02:36:01;;;;;;;3.63;1.90;;;15.40;99.90;;;;;;5105099;27;37049;-57
2022/08/30 02:38:28;;;;;;;4.90;1.77;;;15.40;99.90;;;;;;5106361;27;36331;-57
2022/08/30 02:40:55;;;;;;;4.88;1.58;;;15.40;99.90;;;;;;5105585;27;41259;-57
2022/08/30 02:43:23;;;;;;;2.67;1.40;;;15.40;99.90;;;;;;5104852;27;38776;-56
2022/08/30 02:45:50;;;;;;;3.08;1.50;;;15.50;99.90;;;;;;5104489;27;35552;-57
2022/08/30 02:48:19;;;;;;;3.47;1.42;;;15.50;99.90;;;;;;5104741;27;38890;-57
2022/08/30 02:50:50;;;;;;;2.95;1.80;;;15.50;99.90;;;;;;5105681;27;37917;-56
2022/08/30 02:53:19;;;;;;;3.47;1.90;;;15.50;99.90;;;;;;5105002;27;39765;-57
2022/08/30 02:55:48;;;;;;;3.80;1.65;;;15.50;99.90;;;;;;5105935;27;36211;-57
2022/08/30 02:58:15;;;;;;;3.83;1.55;;;15.50;99.90;;;;;;5104381;27;37803;-56
2022/08/30 03:00:42;;;;;;;5.07;2.30;;;15.40;99.90;;;;;;5104604;27;39535;-57
2022/08/30 03:03:10;;;;;;;4.07;1.77;;;15.40;99.90;;;;;;5104578;27;36078;-56
2022/08/30 03:05:39;;;;;;;16.63;1.95;;;15.40;99.90;;;;;;5103362;27;36639;-57
2022/08/30 03:08:06;;;;;;;5.93;1.30;;;15.40;99.90;;;;;;5104681;27;36999;-57
2022/08/30 03:10:34;;;;;;;10.02;1.10;;;15.40;99.90;;;;;;5104975;27;38704;-57
2022/08/30 03:13:02;;;;;;;3.30;1.20;;;15.40;99.90;;;;;;5103358;27;37506;-57
2022/08/30 03:15:29;;;;;;;5.75;2.00;;;15.50;99.90;;;;;;5105499;27;39271;-57
2022/08/30 03:17:57;;;;;;;3.88;2.17;;;15.50;99.90;;;;;;5103751;27;37463;-56
2022/08/30 03:20:25;;;;;;;5.43;2.28;;;15.50;99.90;;;;;;5105231;27;37923;-56
2022/08/30 03:22:54;;;;;;;3.58;1.52;;;15.40;99.90;;;;;;5104497;27;38920;-57
2022/08/30 03:25:22;;;;;;;5.65;2.05;;;15.40;99.90;;;;;;5105016;27;36571;-56
2022/08/30 03:27:49;;;;;;;5.47;2.47;;;15.50;99.90;;;;;;5104205;27;38692;-57
2022/08/30 03:30:18;;;;;;;4.47;1.88;;;15.40;99.90;;;;;;5105264;27;40032;-57
2022/08/30 03:32:46;;;;;;;7.80;2.00;;;15.40;99.90;;;;;;5104833;27;39877;-57
2022/08/30 03:35:14;;;;;;;5.88;2.00;;;15.40;99.90;;;;;;5104785;27;36652;-56
2022/08/30 03:37:42;;;;;;;3.95;2.28;;;15.40;99.90;;;;;;5103852;27;38006;-57
2022/08/30 03:40:13;;;;;;;4.10;2.35;;;15.30;99.90;;;;;;5104990;27;38720;-57
2022/08/30 03:42:41;;;;;;;6.80;2.60;;;15.30;99.90;;;;;;5104028;27;38009;-57
2022/08/30 03:45:09;;;;;;;7.43;2.42;;;15.30;99.90;;;;;;5105032;27;37052;-57
2022/08/30 03:47:37;;;;;;;4.93;2.33;;;15.20;99.90;;;;;;5103207;27;36289;-57
2022/08/30 03:50:05;;;;;;;6.75;2.25;;;15.20;99.90;;;;;;5101939;27;37839;-56
2022/08/30 03:52:33;;;;;;;5.70;2.30;;;15.20;99.90;;;;;;5104805;27;37363;-57
2022/08/30 03:55:00;;;;;;;6.90;3.00;;;15.20;99.90;;;;;;5103402;27;37841;-57
2022/08/30 03:57:29;;;;;;;5.70;2.50;;;15.30;99.90;;;;;;5103622;27;37929;-57
2022/08/30 03:59:56;;;;;;;5.28;2.60;;;15.30;99.90;;;;;;5103973;27;38314;-57
2022/08/30 04:02:23;;;;;;;4.80;2.50;;;15.20;99.90;;;;;;5104366;27;39276;-57
2022/08/30 04:04:51;;;;;;;4.25;1.80;;;15.20;99.90;;;;;;5102958;27;37471;-56
2022/08/30 04:07:19;;;;;;;1.77;1.00;;;15.10;99.90;;;;;;5102421;27;36411;-57
2022/08/30 04:09:46;;;;;;;1.95;1.17;;;15.20;99.90;;;;;;5104526;27;38603;-57
2022/08/30 04:12:14;;;;;;;3.58;1.48;;;15.10;99.90;;;;;;5102702;27;37517;-57
2022/08/30 04:14:42;;;;;;;3.45;1.92;;;15.00;99.90;;;;;;5104515;27;36304;-57
2022/08/30 04:17:10;;;;;;;3.42;1.80;;;15.00;99.90;;;;;;5103135;27;37251;-56
2022/08/30 04:19:37;;;;;;;6.93;2.92;;;14.90;99.90;;;;;;5104296;27;37521;-57
2022/08/30 04:22:04;;;;;;;3.75;2.10;;;14.90;99.90;;;;;;5103647;27;37467;-57
2022/08/30 04:24:33;;;;;;;5.18;2.45;;;14.90;99.90;;;;;;5103302;27;36478;-57
2022/08/30 04:27:00;;;;;;;4.13;2.38;;;14.80;99.90;;;;;;5104492;27;36317;-57
2022/08/30 04:29:27;;;;;;;5.63;2.88;;;14.90;99.90;;;;;;5101844;27;37908;-56
2022/08/30 04:31:56;;;;;;;6.43;2.65;;;14.80;99.90;;;;;;5102973;27;38422;-57
2022/08/30 04:34:24;;;;;;;5.43;2.58;;;14.80;99.90;;;;;;5103646;27;37012;-57
2022/08/30 04:36:51;;;;;;;5.57;2.47;;;14.80;99.90;;;;;;5099748;27;37219;-56
2022/08/30 04:39:19;;;;;;;5.82;2.70;;;14.80;99.90;;;;;;5101428;27;38006;-56
2022/08/30 04:41:47;;;;;;;6.03;2.97;;;14.80;99.90;;;;;;5102138;27;37373;-56
2022/08/30 04:44:14;;;;;;;7.47;2.90;;;14.80;99.90;;;;;;5101571;27;36659;-57
2022/08/30 04:46:42;;;;;;;5.20;2.80;;;14.80;99.90;;;;;;5103712;27;37328;-57
2022/08/30 04:49:10;;;;;;;6.60;3.00;;;14.80;99.90;;;;;;5102426;27;37796;-56
2022/08/30 04:51:38;;;;;;;6.50;3.50;;;14.80;99.90;;;;;;5102509;27;38348;-57
2022/08/30 04:54:05;;;;;;;5.45;3.20;;;14.80;99.90;;;;;;5102167;27;37877;-57
2022/08/30 04:56:33;;;;;;;7.65;3.17;;;14.80;99.90;;;;;;5102439;27;36126;-56
2022/08/30 04:59:01;;;;;;;7.00;3.50;;;14.80;99.90;;;;;;5103229;27;37214;-56
2022/08/30 05:01:31;;;;;;;5.63;3.50;;;14.80;99.90;;;;;;5103801;27;37855;-57
2022/08/30 05:03:59;;;;;;;8.15;3.10;;;14.80;99.90;;;;;;5102096;27;35365;-57
2022/08/30 05:06:30;;;;;;;6.20;3.22;;;14.70;99.90;;;;;;5102789;27;38158;-57
2022/08/30 05:08:59;;;;;;;6.22;3.60;;;14.80;99.90;;;;;;5102098;27;38095;-57
2022/08/30 05:11:27;;;;;;;6.18;3.00;;;14.80;99.90;;;;;;5103123;27;36194;-57
2022/08/30 05:13:55;;;;;;;6.25;3.55;;;14.70;99.90;;;;;;5102776;27;37744;-56
2022/08/30 05:16:22;;;;;;;5.93;3.00;;;14.70;99.90;;;;;;5101816;27;38372;-57
2022/08/30 05:18:51;;;;;;;5.88;3.15;;;14.70;99.90;;;;;;5101436;27;36333;-56
2022/08/30 05:21:20;;;;;;;7.25;3.10;;;14.70;99.90;;;;;;5102495;27;36097;-57
2022/08/30 05:23:50;;;;;;;8.88;3.35;;;14.70;99.90;;;;;;5101621;27;36665;-57
2022/08/30 05:26:19;;;;;;;5.00;2.72;;;14.70;99.90;;;;;;5102631;27;38537;-57
2022/08/30 05:28:47;;;;;;;5.95;3.10;;;14.80;99.90;;;;;;5101738;27;36429;-57
2022/08/30 05:31:16;;;;;;;6.35;2.97;;;14.90;99.90;;;;;;5102242;27;37158;-57
2022/08/30 05:33:44;;;;;;;5.32;2.67;;;15.10;99.90;;;;;;5101105;27;36462;-56
2022/08/30 05:36:13;;;;;;;5.43;2.90;;;15.30;99.90;;;;;;5101066;27;37429;-57
2022/08/30 05:38:40;;;;;;;7.00;3.10;;;15.60;99.90;;;;;;5101667;27;36513;-57
2022/08/30 05:41:09;;;;;;;5.05;3.08;;;16.00;99.90;;;;;;5103333;27;37369;-57
2022/08/30 05:43:37;;;;;;;4.88;2.53;;;16.50;99.90;;;;;;5101659;27;35367;-56
2022/08/30 05:46:06;;;;;;;6.15;2.67;;;17.10;99.90;;;;;;5101688;27;37702;-57
2022/08/30 05:48:34;;;;;;;5.88;2.60;;;17.60;99.90;;;;;;5101267;27;38258;-57
2022/08/30 05:51:06;;;;;;;5.80;2.13;;;17.90;99.90;;;;;;5101519;27;37319;-56
2022/08/30 05:53:34;;;;;;;6.75;2.70;;;18.00;99.90;;;;;;5100818;27;36359;-56
2022/08/30 05:56:04;;;;;;;5.88;1.98;;;18.00;99.90;;;;;;5107782;27;37844;-56
2022/08/30 05:58:33;;;;;;;5.57;2.58;;;17.80;99.90;;;;;;5107862;27;36898;-57
2022/08/30 06:01:01;;;;;;;5.38;2.08;;;17.60;99.90;;;;;;5108776;27;37634;-57
2022/08/30 06:03:31;;;;;;;8.35;2.58;;;17.40;99.90;;;;;;5107504;27;36758;-57
2022/08/30 06:05:59;;;;;;;6.82;2.60;;;17.30;99.90;;;;;;5108139;27;38067;-57
2022/08/30 06:08:26;;;;;;;7.03;2.65;;;17.20;99.90;;;;;;5108442;27;39359;-57
2022/08/30 06:10:53;;;;;;;6.03;2.50;;;17.10;99.90;;;;;;5107304;27;36458;-57
2022/08/30 06:13:21;;;;;;;7.30;3.00;;;17.20;99.90;;;;;;5108408;27;37697;-57
2022/08/30 06:15:51;;;;;;;6.20;2.50;;;17.10;99.90;;;;;;5108259;27;39289;-57
2022/08/30 06:18:18;;;;;;;8.77;2.47;;;17.10;99.90;;;;;;5108416;27;37339;-57
2022/08/30 06:20:47;;;;;;;5.63;2.35;;;17.10;99.90;;;;;;5106404;27;39744;-57
2022/08/30 06:23:16;;;;;;;6.28;2.80;;;17.10;99.90;;;;;;5105041;27;37117;-57
2022/08/30 06:25:44;;;;;;;5.95;2.72;;;17.10;99.90;;;;;;5108409;27;38417;-56
2022/08/30 06:28:11;;;;;;;5.47;2.83;;;17.20;99.90;;;;;;5108079;27;37544;-57
2022/08/30 06:30:40;;;;;;;6.47;2.85;;;17.20;99.90;;;;;;5107769;27;38051;-57
2022/08/30 06:33:09;;;;;;;5.60;2.53;;;17.20;99.90;;;;;;5108678;27;37672;-57
2022/08/30 06:35:37;;;;;;;8.18;3.53;;;17.30;99.90;;;;;;5107983;27;37308;-56
2022/08/30 06:38:05;;;;;;;7.13;2.97;;;17.30;99.90;;;;;;5106884;27;38688;-57
2022/08/30 06:40:32;;;;;;;5.47;2.83;;;17.40;99.90;;;;;;5107195;27;38755;-57
2022/08/30 06:42:59;;;;;;;8.55;3.17;;;17.40;99.90;;;;;;5107303;27;36675;-56
2022/08/30 06:45:27;;;;;;;11.55;3.20;;;17.50;99.90;;;;;;5107986;27;37268;-57
2022/08/30 06:47:54;;;;;;;6.20;2.70;;;17.50;99.90;;;;;;5107830;27;37920;-57
2022/08/30 06:50:24;;;;;;;6.57;3.00;;;17.50;99.90;;;;;;5107887;27;37484;-57
2022/08/30 06:52:52;;;;;;;5.88;3.22;;;17.50;99.90;;;;;;5107834;27;35438;-57
2022/08/30 06:55:20;;;;;;;6.95;2.53;;;17.60;99.90;;;;;;5107450;27;37612;-57
2022/08/30 06:57:47;;;;;;;8.75;2.60;;;17.60;99.90;;;;;;5104240;27;37708;-57
2022/08/30 07:00:16;;;;;;;6.60;2.83;;;17.60;99.90;;;;;;5106693;27;37703;-58
2022/08/30 07:02:43;;;;;;;6.60;2.15;;;17.60;99.90;;;;;;5107405;27;37500;-57
2022/08/30 07:05:11;;;;;;;6.38;2.20;;;17.70;99.90;;;;;;5106328;27;37342;-57
2022/08/30 07:07:40;;;;;;;4.68;1.75;;;17.70;99.90;;;;;;5099715;27;40625;-57
2022/08/30 07:10:09;;;;;;;5.18;1.50;;;17.80;99.90;;;;;;5105004;27;36900;-56
2022/08/30 07:12:37;;;;;;;7.18;1.40;;;17.90;99.90;;;;;;5103244;27;36048;-57
2022/08/30 07:15:05;;;;;;;6.10;1.40;;;17.90;99.90;;;;;;5101669;27;38771;-57
2022/08/30 07:20:18;;;;;;;4.38;1.45;;;18.10;99.90;;;;;;5098602;27;37289;-57
2022/08/30 07:22:48;;;;;;;6.68;1.60;;;18.10;99.90;;;;;;5101035;27;36728;-57
2022/08/30 07:25:16;;;;;;;6.05;1.40;;;18.20;99.90;;;;;;5101533;27;38141;-57
2022/08/30 07:27:44;;;;;;;4.53;1.40;;;18.20;99.90;;;;;;5102851;27;37409;-57
2022/08/30 07:30:12;;;;;;;5.93;1.55;;;18.20;99.90;;;;;;5103879;27;38104;-57
2022/08/30 07:32:40;;;;;;;3.08;1.23;;;18.30;99.90;;;;;;5102520;27;38251;-57
2022/08/30 07:35:08;;;;;;;5.47;1.50;;;18.30;99.90;;;;;;5103053;27;37348;-57
2022/08/30 07:37:35;;;;;;;2.58;1.10;;;18.40;99.90;;;;;;5103640;27;38774;-57
2022/08/30 07:40:05;;;;;;;3.67;1.35;;;18.40;99.60;;;;;;5102429;27;36289;-56
2022/08/30 07:42:32;;;;;;;4.03;1.33;;;18.50;99.50;;;;;;5102759;27;36443;-57
2022/08/30 07:44:59;;;;;;;5.65;1.70;;;18.50;99.20;;;;;;5104709;27;36340;-57
2022/08/30 07:47:27;;;;;;;4.25;1.35;;;18.50;98.90;;;;;;5102668;27;37639;-57
2022/08/30 07:49:54;;;;;;;6.13;1.20;;;18.60;98.90;;;;;;5103985;27;38192;-57
2022/08/30 07:52:21;;;;;;;3.88;1.30;;;18.70;98.70;;;;;;5101793;27;36672;-57
2022/08/30 07:54:48;;;;;;;2.90;1.15;;;18.70;98.20;;;;;;5103610;27;37600;-57
2022/08/30 07:57:18;;;;;;;5.00;1.13;;;18.70;97.90;;;;;;5102942;27;36527;-57
2022/08/30 07:59:45;;;;;;;13.85;1.73;;;18.70;97.70;;;;;;5105001;27;38742;-60
2022/08/30 08:02:12;;;;;;;4.63;1.20;;;18.80;97.50;;;;;;5104236;27;38731;-60
2022/08/30 08:04:39;;;;;;;4.45;1.40;;;18.80;97.60;;;;;;5106062;27;37791;-60
2022/08/30 08:07:07;;;;;;;8.68;1.40;;;18.90;97.50;;;;;;5104732;27;36438;-60
2022/08/30 08:09:34;;;;;;;3.83;0.90;;;18.90;97.60;;;;;;5105183;27;37918;-60
2022/08/30 08:12:04;;;;;;;3.08;1.17;;;19.00;97.50;;;;;;5105262;27;38421;-60
2022/08/30 08:14:33;;;;;;;3.60;1.35;;;19.00;97.20;;;;;;5104725;27;37987;-60
2022/08/30 08:17:01;;;;;;;2.85;1.25;;;19.10;97.00;;;;;;5104099;27;36427;-60
2022/08/30 08:19:28;;;;;;;4.57;1.45;;;19.10;97.10;;;;;;5105046;27;37644;-60
2022/08/30 08:21:58;;;;;;;4.28;1.40;;;19.20;97.20;;;;;;5104830;27;36626;-60
2022/08/30 08:24:26;;;;;;;2.35;1.10;;;19.30;96.50;;;;;;5103782;27;37616;-60
2022/08/30 08:26:54;;;;;;;2.63;0.93;;;19.30;96.30;;;;;;5105491;27;37955;-60
2022/08/30 08:29:22;;;;;;;3.25;1.20;;;19.40;96.20;;;;;;5105273;27;38433;-59
2022/08/30 08:31:51;;;;;;;5.50;1.50;;;19.30;95.70;;;;;;5102161;27;37345;-59
2022/08/30 08:34:22;;;;;;;3.75;1.17;;;19.30;95.80;;;;;;5102996;27;38141;-59
2022/08/30 08:36:49;;;;;;;5.22;1.17;;;19.30;95.90;;;;;;5104021;27;36604;-60
2022/08/30 08:39:17;;;;;;;4.13;1.05;;;19.50;95.60;;;;;;5103636;27;39569;-60
2022/08/30 08:41:55;;;;;;;4.40;1.10;;;19.70;94.70;;;;;;5104195;27;36515;-60
2022/08/30 08:44:33;;;;;;;3.90;1.13;;;19.60;93.80;;;;;;5103312;27;38151;-60
2022/08/30 08:47:09;;;;;;;5.22;0.93;;;19.50;94.10;;;;;;5103338;27;36537;-60
2022/08/30 08:49:39;;;;;;;4.63;1.35;;;19.50;94.40;;;;;;5101899;27;37555;-60
2022/08/30 08:54:57;;;;;;;4.38;1.30;;;19.50;95.20;;;;;;5103376;27;38446;-60
2022/08/30 08:57:25;;;;;;;5.15;1.45;;;19.50;95.20;;;;;;5105074;27;38684;-60
2022/08/30 08:59:53;;;;;;;3.22;1.30;;;19.60;94.80;;;;;;5104296;27;37333;-61
2022/08/30 09:02:27;;;;;;;6.82;1.52;;;19.80;94.40;;;;;;5103224;27;36528;-60
2022/08/30 09:04:59;;;;;;;12.02;3.25;;;19.90;94.10;;;;;;5104444;27;38252;-60
2022/08/30 09:07:31;;;;;;;2.92;1.10;;;20.00;93.80;;;;;;5104378;27;38868;-60
2022/08/30 09:10:00;;;;;;;3.85;1.05;;;20.00;93.70;;;;;;5105388;27;39067;-59
2022/08/30 09:12:28;;;;;;;3.03;1.10;;;20.00;93.70;;;;;;5103737;27;36765;-61
2022/08/30 09:15:01;;;;;;;3.42;1.10;;;20.00;93.40;;;;;;5104125;27;38095;-61
2022/08/30 09:17:31;;;;;;;3.65;1.10;;;19.90;93.00;;;;;;5103454;27;38102;-60
2022/08/30 09:20:00;;;;;;;3.85;1.48;;;19.90;93.00;;;;;;5104714;27;37287;-60
2022/08/30 09:22:33;;;;;;;2.15;1.00;;;19.90;93.10;;;;;;5103686;27;36200;-60
2022/08/30 09:25:04;;;;;;;2.85;1.10;;;19.90;93.30;;;;;;5104445;27;36341;-60
2022/08/30 09:27:34;;;;;;;4.22;1.55;;;19.90;93.50;;;;;;5104380;27;37591;-60
2022/08/30 09:30:06;;;;;;;2.55;1.00;;;20.10;93.00;;;;;;5102975;27;37469;-61
2022/08/30 09:32:38;;;;;;;3.80;1.13;;;20.10;92.40;;;;;;5103738;27;40005;-61
2022/08/30 09:35:09;;;;;;;4.15;1.10;;;20.30;92.80;;;;;;5105066;27;38508;-60
2022/08/30 09:37:44;;;;;;;5.47;1.58;;;20.50;92.60;;;;;;5103440;27;37119;-60
2022/08/30 09:40:16;;;;;;;4.93;1.35;;;20.60;92.00;;;;;;5103003;27;36126;-60
2022/08/30 09:43:00;;;;;;;2.40;0.90;;;20.60;91.60;;;;;;5102952;27;35280;-60
2022/08/30 09:45:34;;;;;;;2.53;1.10;;;20.80;90.70;;;;;;5102944;27;37608;-60
2022/08/30 09:48:22;;;;;;;3.10;1.00;;;20.90;90.60;;;;;;5104319;27;36489;-60
2022/08/30 09:51:01;;;;;;;2.85;1.00;;;21.10;89.60;;;;;;5104420;27;38652;-61
2022/08/30 09:53:33;;;;;;;3.35;1.13;;;21.20;88.10;;;;;;5102653;27;35213;-61
2022/08/30 09:56:07;;;;;;;8.73;1.90;;;21.40;87.50;;;;;;5103847;27;37614;-60
2022/08/30 09:58:51;;;;;;;7.25;2.50;;;21.50;86.40;;;;;;5103552;27;36497;-61
2022/08/30 10:01:24;;;;;;;6.03;0.95;;;21.60;86.20;;;;;;5104553;27;37606;-61
2022/08/30 10:04:01;;;;;;;3.80;1.55;;;21.80;85.70;;;;;;5102867;27;37883;-61
2022/08/30 10:06:36;;;;;;;5.07;1.10;;;21.90;84.80;;;;;;5103516;27;38220;-60
2022/08/30 10:09:17;;;;;;;2.40;0.90;;;22.00;85.40;;;;;;5100990;27;39232;-60
2022/08/30 10:11:52;;;;;;;2.90;1.23;;;22.10;84.00;;;;;;5101873;27;38315;-61
2022/08/30 10:14:37;;;;;;;3.72;1.20;;;22.20;83.20;;;;;;5100544;27;37508;-61
2022/08/30 10:17:11;;;;;;;5.45;1.10;;;22.30;83.30;;;;;;5102026;27;36252;-61
2022/08/30 10:19:56;;;;;;;3.67;0.80;;;22.40;82.50;;;;;;5102137;27;36457;-60
2022/08/30 10:22:29;;;;;;;3.10;1.00;;;22.60;82.60;;;;;;5102210;27;37421;-60
2022/08/30 10:25:02;;;;;;;2.97;1.13;;;22.70;79.90;;;;;;5103164;27;36897;-60
2022/08/30 10:27:35;;;;;;;4.15;1.40;;;22.80;78.30;;;;;;5101110;27;37546;-60
2022/08/30 10:30:09;;;;;;;6.65;1.23;;;22.80;77.60;;;;;;5102535;27;38718;-60
2022/08/30 10:32:41;;;;;;;6.70;1.35;;;22.80;77.20;;;;;;5100817;27;38699;-60
2022/08/30 10:35:14;;;;;;;2.67;0.80;;;22.90;76.70;;;;;;5100830;27;36537;-60
2022/08/30 10:37:46;;;;;;;4.15;0.93;;;22.80;75.10;;;;;;5102159;27;38153;-60
2022/08/30 10:43:09;;;;;;;19.90;3.00;;;22.40;75.10;;;;;;5103217;27;38482;-60
2022/08/30 10:45:44;;;;;;;1.17;0.80;;;22.10;75.90;;;;;;5106546;27;36510;-60
2022/08/30 10:48:17;;;;;;;2.40;1.00;;;22.10;77.90;;;;;;5105153;27;39087;-60
2022/08/30 10:50:49;;;;;;;2.88;1.02;;;22.30;76.40;;;;;;5104223;27;38173;-60
2022/08/30 10:53:21;;;;;;;2.90;0.80;;;22.30;75.70;;;;;;5103194;27;37191;-60
2022/08/30 10:55:53;;;;;;;2.95;1.10;;;22.30;77.20;;;;;;5103199;27;36513;-61
2022/08/30 10:58:20;;;;;;;2.60;0.88;;;22.40;77.50;;;;;;5102578;27;37542;-60
2022/08/30 11:01:05;;;;;;;6.25;1.27;;;22.50;76.90;;;;;;5103432;27;37325;-60
2022/08/30 11:04:05;;;;;;;4.10;1.10;;;22.60;76.70;;;;;;5098419;27;37383;-60
2022/08/30 11:06:39;;;;;;;3.38;0.85;;;22.70;78.00;;;;;;5069560;27;35948;-60
2022/08/30 11:09:24;;;;;;;2.67;0.88;;;22.80;77.10;;;;;;5099259;27;36914;-60
2022/08/30 11:12:12;;;;;;;3.25;0.80;;;22.90;73.00;;;;;;5100045;27;37473;-60
2022/08/30 11:14:41;;;;;;;2.17;0.80;;;22.90;73.30;;;;;;5098376;27;37584;-60
2022/08/30 11:17:27;;;;;;;3.25;0.90;;;23.00;74.30;;;;;;5099410;27;37055;-60
2022/08/30 11:19:57;;;;;;;3.70;0.85;;;23.10;73.60;;;;;;5097670;27;36392;-61
2022/08/30 11:22:29;;;;;;;5.32;0.90;;;23.20;72.40;;;;;;5098231;27;39547;-60
2022/08/30 11:25:11;;;;;;;3.03;1.10;;;23.30;72.60;;;;;;5099705;27;36084;-60
2022/08/30 11:27:54;;;;;;;2.42;0.88;;;23.40;72.10;;;;;;5096688;27;36458;-60
2022/08/30 11:30:47;;;;;;;2.65;0.90;;;23.50;71.10;;;;;;5097443;27;36219;-61
2022/08/30 11:33:43;;;;;;;3.28;0.85;;;23.50;70.00;;;;;;5097380;27;38467;-60
2022/08/30 11:36:12;;;;;;;2.95;1.00;;;23.30;69.90;;;;;;5097292;27;37249;-61
2022/08/30 11:39:05;;;;;;;1.90;0.90;;;23.30;68.50;;;;;;5097361;27;37062;-61
2022/08/30 11:41:37;;;;;;;3.07;1.03;;;23.20;66.50;;;;;;5092477;27;37624;-61
2022/08/30 11:44:30;;;;;;;2.20;1.05;;;23.20;68.60;;;;;;5098895;27;37756;-61
2022/08/30 11:47:00;;;;;;;2.40;0.82;;;23.30;67.70;;;;;;5095541;27;37275;-61
2022/08/30 11:49:51;;;;;;;5.38;1.00;;;23.30;69.90;;;;;;5096907;27;35617;-61
2022/08/30 11:52:28;;;;;;;2.97;1.00;;;23.50;67.40;;;;;;5097174;27;37844;-61
2022/08/30 11:55:25;;;;;;;2.40;0.90;;;23.50;67.10;;;;;;5096439;27;37077;-60
2022/08/30 11:57:58;;;;;;;3.40;1.00;;;23.50;65.90;;;;;;5100327;27;37136;-60
2022/08/30 12:00:27;;;;;;;;;;;23.50;67.50;;;;;;5099833;27;37029;-60
2022/08/30 12:02:57;;;;;;;2.35;0.70;;;23.50;65.80;;;;;;5099336;27;37782;-61
2022/08/30 12:05:48;;;;;;;2.22;0.90;;;23.50;67.30;;;;;;5098282;27;36504;-61
2022/08/30 12:08:52;;;;;;;2.45;1.02;;;23.50;68.70;;;;;;5094366;27;38711;-61
2022/08/30 12:12:02;;;;;;;3.15;1.05;;;23.40;67.40;;;;;;5098630;27;37256;-60
2022/08/30 12:14:41;;;;;;;4.43;1.25;;;23.30;65.60;;;;;;5098393;27;38774;-61
2022/08/30 12:20:05;;;;;;;2.28;0.90;;;23.20;66.90;;;;;;5100619;27;38241;-61
2022/08/30 12:22:36;;;;;;;1.00;0.63;;;23.20;68.40;;;;;;5100094;27;35501;-60
2022/08/30 12:25:15;;;;;;;4.90;1.20;;;23.20;68.30;;;;;;5100985;27;36470;-61
2022/08/30 12:27:42;;;;;;;4.88;1.30;;;23.20;69.80;;;;;;5098700;27;38802;-60
2022/08/30 12:30:12;;;;;;;4.63;1.20;;;23.20;69.60;;;;;;5099376;27;37242;-60
2022/08/30 12:32:45;;;;;;;3.63;1.35;;;23.20;71.00;;;;;;5099348;27;36638;-60
2022/08/30 12:35:20;;;;;;;3.72;1.05;;;23.20;71.70;;;;;;5099398;27;37761;-60
2022/08/30 12:37:57;;;;;;;4.13;1.30;;;23.10;70.60;;;;;;5098989;27;37780;-60
2022/08/30 12:40:25;;;;;;;3.78;0.98;;;23.00;72.60;;;;;;5097982;27;37333;-60
2022/08/30 12:42:55;;;;;;;3.72;1.30;;;22.90;72.70;;;;;;5097694;27;35931;-60
2022/08/30 12:45:26;;;;;;;4.60;1.10;;;22.80;72.40;;;;;;5097012;27;37923;-60
2022/08/30 12:47:57;;;;;;;4.47;1.40;;;22.60;71.80;;;;;;5098489;27;37742;-60
2022/08/30 12:50:29;;;;;;;3.53;0.90;;;22.40;73.90;;;;;;5098781;27;36344;-60
2022/08/30 12:52:59;;;;;;;4.32;1.20;;;22.40;75.10;;;;;;5100519;27;36303;-60
2022/08/30 12:55:30;;;;;;;6.28;1.52;;;22.40;76.80;;;;;;5095471;27;38904;-61
2022/08/30 12:58:00;;;;;;;7.43;1.55;;;22.50;78.10;;;;;;5099374;27;37134;-60
2022/08/30 13:00:32;;;;;;;3.25;1.00;;;22.50;76.90;;;;;;5097282;27;38771;-60
2022/08/30 13:03:02;;;;;;;3.38;0.85;;;22.50;76.20;;;;;;5093617;27;35534;-60
2022/08/30 13:05:47;;;;;;;3.65;0.80;;;22.50;75.80;;;;;;5095949;27;38003;-60
2022/08/30 13:08:18;;;;;;;3.42;1.15;;;22.40;74.40;;;;;;5098917;27;38019;-61
2022/08/30 13:10:55;;;;;;;4.20;1.10;;;22.40;73.90;;;;;;5099267;27;39857;-61
2022/08/30 13:13:42;;;;;;;1.98;0.93;;;22.30;73.50;;;;;;5098839;27;37442;-61
2022/08/30 13:16:35;;;;;;;3.67;1.25;;;22.30;74.20;;;;;;5097217;27;37576;-60
2022/08/30 13:19:25;;;;;;;3.15;1.00;;;22.30;74.60;;;;;;5097162;27;38684;-61